Time;durP1;ratioP1;P1;durP2;ratioP2;P2;SDS_P1;SDS_P2;PMS_P1;PMS_P2;Temp;Humidity;BMP_temperature;BMP_pressure;BME280_temperature;BME280_humidity;BME280_pressure;Samples;Min_cycle;Max_cycle;Signal;HPM_P1;HPM_P2
2022/04/15 00:00:10;;;;;;;10.45;6.97;;;;;;;13.57;47.87;102091.31;1633109;87;21065;-66
2022/04/15 00:02:41;;;;;;;10.28;8.10;;;;;;;13.55;47.94;102093.08;1632597;87;21578;-66
2022/04/15 00:07:55;;;;;;;9.53;6.67;;;;;;;13.49;48.09;102087.93;1632216;87;21066;-66
2022/04/15 00:10:22;;;;;;;14.40;7.03;;;;;;;13.47;48.21;102081.86;1624180;87;21093;-66
2022/04/15 00:12:54;;;;;;;12.40;6.87;;;;;;;13.44;48.36;102087.98;1635145;87;21569;-65
2022/04/15 00:15:21;;;;;;;8.38;6.42;;;;;;;13.41;48.38;102089.78;1619933;87;21578;-66
2022/04/15 00:17:47;;;;;;;8.90;6.70;;;;;;;13.41;48.52;102089.78;1638473;87;21061;-66
2022/04/15 00:20:14;;;;;;;8.35;6.72;;;;;;;13.42;48.40;102091.49;1632347;87;21070;-66
2022/04/15 00:22:42;;;;;;;10.48;7.15;;;;;;;13.41;48.58;102089.78;1632461;87;21077;-65
2022/04/15 00:25:10;;;;;;;9.18;6.15;;;;;;;13.37;48.67;102089.39;1632341;87;21057;-66
2022/04/15 00:27:39;;;;;;;9.80;6.70;;;;;;;13.34;48.76;102094.64;1632644;87;21109;-65
2022/04/15 00:30:09;;;;;;;8.75;6.60;;;;;;;13.30;48.88;102085.11;1634760;87;21124;-66
2022/04/15 00:32:36;;;;;;;9.00;6.80;;;;;;;13.26;48.91;102080.80;1632115;87;21036;-65
2022/04/15 00:35:05;;;;;;;7.92;6.20;;;;;;;13.24;49.00;102083.88;1637596;87;22234;-66
2022/04/15 00:37:32;;;;;;;14.15;8.33;;;;;;;13.21;49.14;102078.70;1637414;87;21680;-65
2022/04/15 00:40:02;;;;;;;10.35;6.78;;;;;;;13.19;49.23;102080.47;1635087;87;21088;-65
2022/04/15 00:42:30;;;;;;;9.05;6.92;;;;;;;13.15;49.42;102078.77;1636229;87;21076;-66
2022/04/15 00:44:57;;;;;;;10.13;7.05;;;;;;;13.11;49.77;102077.92;1631013;87;21093;-66
2022/04/15 00:47:50;;;;;;;11.53;7.50;;;;;;;13.08;50.05;102079.28;1628527;87;21026;-66
2022/04/15 00:50:19;;;;;;;9.93;7.28;;;;;;;13.08;50.28;102075.79;1628011;87;21009;-66
2022/04/15 00:52:47;;;;;;;10.18;7.60;;;;;;;13.06;50.54;102075.34;1628612;87;21099;-66
2022/04/15 00:55:16;;;;;;;11.83;8.25;;;;;;;13.03;50.58;102077.98;1628694;87;21018;-65
2022/04/15 00:57:49;;;;;;;12.03;8.13;;;;;;;12.99;50.64;102083.25;1599909;89;21105;-65
2022/04/15 01:00:17;;;;;;;10.43;7.80;;;;;;;12.95;50.77;102078.50;1598954;89;21076;-66
2022/04/15 01:02:44;;;;;;;12.28;8.15;;;;;;;12.93;50.99;102072.43;1612477;88;21004;-66
2022/04/15 01:05:13;;;;;;;12.95;8.33;;;;;;;12.93;51.18;102071.55;1658084;86;21612;-66
2022/04/15 01:07:49;;;;;;;10.75;7.53;;;;;;;12.92;51.44;102070.68;1651533;86;21101;-66
2022/04/15 01:10:19;;;;;;;11.28;7.78;;;;;;;12.90;51.74;102068.53;1609850;88;21560;-66
2022/04/15 01:12:54;;;;;;;14.80;8.50;;;;;;;12.91;51.93;102068.09;1659693;86;21502;-66
2022/04/15 01:15:23;;;;;;;11.10;7.45;;;;;;;12.92;52.19;102061.54;1608343;88;21489;-66
2022/04/15 01:17:50;;;;;;;10.00;7.50;;;;;;;12.94;52.33;102064.16;1657968;86;21505;-66
2022/04/15 01:20:17;;;;;;;9.73;7.30;;;;;;;12.95;52.46;102056.30;1608168;88;21005;-66
2022/04/15 01:22:46;;;;;;;11.08;7.22;;;;;;;12.99;52.64;102057.99;1657610;86;21590;-66
2022/04/15 01:25:16;;;;;;;14.43;8.15;;;;;;;13.02;52.71;102060.55;1607662;88;21576;-66
2022/04/15 01:27:46;;;;;;;10.88;7.28;;;;;;;13.04;52.80;102061.44;1641394;86;21092;-66
2022/04/15 01:30:19;;;;;;;8.93;6.97;;;;;;;13.08;52.88;102058.80;1595375;89;21077;-66
2022/04/15 01:32:48;;;;;;;12.25;7.75;;;;;;;13.10;52.98;102055.73;1600717;89;21029;-66
2022/04/15 01:35:16;;;;;;;13.20;8.10;;;;;;;13.12;53.02;102063.98;1600456;89;21116;-66
2022/04/15 01:37:44;;;;;;;11.65;8.08;;;;;;;13.14;53.10;102061.34;1597153;89;21053;-66
2022/04/15 01:40:12;;;;;;;9.65;7.42;;;;;;;13.15;53.07;102060.48;1590910;89;21566;-66
2022/04/15 01:42:42;;;;;;;9.15;6.87;;;;;;;13.14;52.98;102058.30;1598631;89;21499;-66
2022/04/15 01:45:10;;;;;;;8.58;6.70;;;;;;;13.11;52.82;102060.09;1594968;89;21120;-66
2022/04/15 01:47:37;;;;;;;12.05;8.18;;;;;;;13.11;52.74;102062.70;1600503;89;21053;-66
2022/04/15 01:50:05;;;;;;;9.65;7.72;;;;;;;13.11;52.58;102060.09;1599398;89;21056;-66
2022/04/15 01:52:32;;;;;;;9.15;8.00;;;;;;;13.11;52.46;102062.70;1598317;89;21141;-66
2022/04/15 01:54:59;;;;;;;13.60;7.83;;;;;;;13.12;52.34;102061.80;1599702;89;21221;-66
2022/04/15 01:57:27;;;;;;;10.85;7.47;;;;;;;13.11;52.19;102058.78;1600310;89;21045;-66
2022/04/15 01:59:55;;;;;;;10.78;8.05;;;;;;;13.09;51.99;102052.25;1600626;89;21049;-66
2022/04/15 02:02:21;;;;;;;9.00;6.72;;;;;;;13.08;51.80;102050.06;1586425;89;21129;-66
2022/04/15 02:04:50;;;;;;;12.10;7.90;;;;;;;13.08;51.58;102060.52;1599932;89;21632;-66
2022/04/15 02:07:16;;;;;;;9.80;7.47;;;;;;;13.08;51.42;102060.52;1600700;89;21024;-66
2022/04/15 02:09:43;;;;;;;9.53;7.05;;;;;;;13.08;51.25;102052.67;1600333;89;21500;-66
2022/04/15 02:12:10;;;;;;;9.78;7.12;;;;;;;13.12;51.13;102055.27;1598078;89;21081;-66
2022/04/15 02:14:37;;;;;;;8.78;7.08;;;;;;;13.11;50.98;102056.17;1598181;89;21048;-66
2022/04/15 02:17:06;;;;;;;10.60;6.75;;;;;;;13.08;50.82;102056.19;1598129;89;21085;-66
2022/04/15 02:19:32;;;;;;;9.83;6.92;;;;;;;13.04;50.75;102050.14;1598112;89;21145;-66
2022/04/15 02:21:59;;;;;;;8.75;7.58;;;;;;;13.00;50.74;102054.95;1598557;89;21045;-66
2022/04/15 02:24:26;;;;;;;10.00;7.00;;;;;;;12.97;50.69;102053.22;1607389;88;21549;-65
2022/04/15 02:26:53;;;;;;;10.60;7.22;;;;;;;12.94;50.69;102051.94;1648888;85;21053;-66
2022/04/15 02:29:20;;;;;;;10.58;7.80;;;;;;;12.91;50.74;102050.68;1676169;85;21050;-66
2022/04/15 02:31:46;;;;;;;9.60;6.97;;;;;;;12.89;50.74;102048.53;1675976;85;21102;-66
2022/04/15 02:34:14;;;;;;;8.55;7.20;;;;;;;12.88;50.67;102042.86;1637434;87;21030;-66
2022/04/15 02:36:41;;;;;;;8.95;7.05;;;;;;;12.92;50.57;102041.95;1675507;85;21522;-66
2022/04/15 02:41:39;;;;;;;9.03;7.45;;;;;;;12.93;50.41;102045.00;1621133;88;21117;-66
2022/04/15 02:44:09;;;;;;;10.10;7.58;;;;;;;12.90;50.42;102041.09;1621529;88;21089;-66
2022/04/15 02:46:37;;;;;;;9.18;6.92;;;;;;;12.87;50.48;102045.06;1621061;88;21070;-66
2022/04/15 02:49:05;;;;;;;13.60;7.70;;;;;;;12.83;50.62;102043.37;1622104;88;21061;-66
2022/04/15 02:51:34;;;;;;;10.68;7.78;;;;;;;12.79;50.90;102044.28;1614204;88;21142;-66
2022/04/15 02:54:01;;;;;;;9.40;7.67;;;;;;;12.74;51.09;102039.53;1601320;89;21070;-66
2022/04/15 02:56:28;;;;;;;8.93;7.28;;;;;;;12.70;51.29;102039.14;1599887;89;21109;-66
2022/04/15 02:58:56;;;;;;;11.35;8.05;;;;;;;12.69;51.38;102042.66;1599672;89;21129;-66
2022/04/15 03:01:24;;;;;;;11.48;6.87;;;;;;;12.68;51.42;102040.91;1600402;89;21095;-66
2022/04/15 03:03:51;;;;;;;16.12;8.88;;;;;;;12.66;51.41;102045.28;1601705;89;21077;-66
2022/04/15 03:06:17;;;;;;;12.90;7.75;;;;;;;12.67;51.48;102041.80;1601262;89;21078;-67
2022/04/15 03:08:45;;;;;;;10.23;7.80;;;;;;;12.66;51.50;102045.28;1587667;89;21130;-67
2022/04/15 03:11:12;;;;;;;12.65;8.10;;;;;;;12.64;51.50;102047.04;1600408;89;21101;-67
2022/04/15 03:13:39;;;;;;;9.60;7.75;;;;;;;12.61;51.54;102044.44;1601630;89;21644;-66
2022/04/15 03:16:06;;;;;;;10.50;7.50;;;;;;;12.58;51.53;102046.23;1601303;89;21074;-67
2022/04/15 03:18:34;;;;;;;11.55;7.90;;;;;;;12.51;51.65;102048.02;1599523;89;21050;-67
2022/04/15 03:21:03;;;;;;;11.45;8.68;;;;;;;12.45;51.86;102045.47;1598688;89;21046;-67
2022/04/15 03:23:31;;;;;;;11.30;8.38;;;;;;;12.44;52.08;102050.28;1598784;89;21066;-67
2022/04/15 03:25:58;;;;;;;9.50;7.78;;;;;;;12.44;52.28;102049.41;1598478;89;21054;-67
2022/04/15 03:28:25;;;;;;;12.13;8.03;;;;;;;12.46;52.46;102052.44;1598796;89;21102;-64
2022/04/15 03:30:52;;;;;;;11.25;8.23;;;;;;;12.47;52.59;102054.16;1600361;89;21626;-65
2022/04/15 03:33:19;;;;;;;11.83;8.83;;;;;;;12.49;52.65;102051.09;1601316;89;21063;-66
2022/04/15 03:35:45;;;;;;;11.43;8.93;;;;;;;12.52;52.77;102054.99;1600753;89;21085;-65
2022/04/15 03:38:12;;;;;;;11.55;8.55;;;;;;;12.56;52.85;102058.00;1598050;89;21602;-66
2022/04/15 03:40:39;;;;;;;14.10;8.28;;;;;;;12.59;52.84;102051.42;1600469;89;21023;-65
2022/04/15 03:43:07;;;;;;;9.70;7.97;;;;;;;12.63;52.84;102054.43;1598959;89;21059;-66
2022/04/15 03:45:34;;;;;;;12.37;8.73;;;;;;;12.63;52.86;102055.73;1642418;86;21040;-66
2022/04/15 03:48:01;;;;;;;11.97;9.03;;;;;;;12.63;52.90;102057.05;1652956;86;21130;-66
2022/04/15 03:50:28;;;;;;;11.03;8.40;;;;;;;12.67;53.03;102053.55;1653350;86;21047;-66
2022/04/15 03:52:55;;;;;;;11.63;8.38;;;;;;;12.71;53.16;102056.56;1666564;84;21137;-66
2022/04/15 03:55:24;;;;;;;11.97;8.50;;;;;;;12.74;53.20;102063.04;1669770;85;21547;-65
2022/04/15 03:57:51;;;;;;;11.63;8.85;;;;;;;12.77;53.23;102053.88;1669886;85;21062;-65
2022/04/15 04:00:21;;;;;;;10.78;8.98;;;;;;;12.81;53.40;102059.94;1665824;85;21070;-66
2022/04/15 04:02:54;;;;;;;11.95;8.05;;;;;;;12.84;53.59;102062.50;1605552;89;21092;-66
2022/04/15 04:05:22;;;;;;;12.63;8.83;;;;;;;12.87;53.73;102060.73;1612866;89;21072;-66
2022/04/15 04:07:51;;;;;;;11.97;8.60;;;;;;;12.92;53.89;102065.45;1612701;89;21117;-66
2022/04/15 04:10:19;;;;;;;13.98;8.93;;;;;;;12.94;54.02;102067.61;1612961;89;21186;-65
2022/04/15 04:12:48;;;;;;;19.05;14.73;;;;;;;12.99;54.07;102068.44;1612968;89;21135;-66
2022/04/15 04:15:16;;;;;;;13.88;10.00;;;;;;;13.05;54.00;102072.33;1612779;89;21061;-66
2022/04/15 04:17:43;;;;;;;10.43;9.13;;;;;;;13.12;54.10;102077.48;1612816;89;21088;-65
2022/04/15 04:20:12;;;;;;;15.98;10.23;;;;;;;13.18;54.15;102076.11;1602047;89;21069;-65
2022/04/15 04:22:40;;;;;;;15.68;10.90;;;;;;;13.24;54.23;102072.11;1613221;89;21065;-66
2022/04/15 04:25:09;;;;;;;12.07;9.60;;;;;;;13.28;54.34;102067.27;1612809;89;21034;-66
2022/04/15 04:27:40;;;;;;;17.87;10.40;;;;;;;13.31;54.41;102065.51;1612865;89;21136;-66
2022/04/15 04:30:09;;;;;;;10.72;9.28;;;;;;;13.34;54.47;102070.68;1612938;89;21076;-66
2022/04/15 04:32:35;;;;;;;19.35;10.55;;;;;;;13.39;54.53;102068.02;1612982;89;21052;-67
2022/04/15 04:35:04;;;;;;;13.78;10.48;;;;;;;13.48;54.55;102071.37;1612655;89;21094;-66
2022/04/15 04:37:33;;;;;;;12.45;10.00;;;;;;;13.56;54.52;102071.29;1612971;88;21075;-67
2022/04/15 04:39:59;;;;;;;13.15;10.28;;;;;;;13.62;54.58;102067.28;1612851;89;21057;-66
2022/04/15 04:42:27;;;;;;;11.50;9.60;;;;;;;13.69;54.61;102072.83;1613025;89;21060;-66
2022/04/15 04:44:55;;;;;;;12.75;9.83;;;;;;;13.74;54.58;102078.88;1612719;89;21105;-66
2022/04/15 04:47:21;;;;;;;14.03;9.33;;;;;;;13.76;54.44;102079.73;1612970;89;21073;-66
2022/04/15 04:49:48;;;;;;;12.58;9.80;;;;;;;13.78;54.40;102083.19;1612775;89;21617;-66
2022/04/15 04:52:15;;;;;;;15.68;10.40;;;;;;;13.83;54.30;102085.28;1607258;89;21097;-67
2022/04/15 04:54:42;;;;;;;13.78;10.95;;;;;;;13.89;54.29;102082.14;1612837;89;21077;-67
2022/04/15 04:57:09;;;;;;;13.15;10.28;;;;;;;13.98;54.23;102085.07;1611453;89;21045;-67
2022/04/15 04:59:35;;;;;;;16.45;11.03;;;;;;;14.05;54.18;102088.47;1636864;85;21046;-66
2022/04/15 05:02:04;;;;;;;15.88;11.03;;;;;;;14.10;54.19;102080.95;1669875;85;21051;-67
2022/04/15 05:04:32;;;;;;;15.45;11.75;;;;;;;14.12;54.21;102085.72;1665772;85;21038;-66
2022/04/15 05:06:59;;;;;;;20.35;13.48;;;;;;;14.14;54.31;102082.64;1669629;85;21058;-66
2022/04/15 05:09:26;;;;;;;18.75;13.08;;;;;;;14.17;54.37;102089.15;1657604;85;21094;-67
2022/04/15 05:11:53;;;;;;;15.90;12.18;;;;;;;14.21;54.43;102095.19;1669819;85;21031;-67
2022/04/15 05:14:20;;;;;;;15.70;12.07;;;;;;;14.26;54.45;102086.37;1668315;85;21038;-67
2022/04/15 05:16:46;;;;;;;14.83;11.00;;;;;;;14.33;54.45;102095.03;1668151;85;21078;-67
2022/04/15 05:19:13;;;;;;;16.23;10.35;;;;;;;14.38;54.39;102095.41;1669088;85;21098;-66
2022/04/15 05:21:42;;;;;;;15.45;11.57;;;;;;;14.44;54.35;102100.53;1669677;85;21666;-66
2022/04/15 05:24:09;;;;;;;13.60;11.10;;;;;;;14.46;54.40;102103.99;1670015;85;21106;-66
2022/04/15 05:26:36;;;;;;;17.05;11.88;;;;;;;14.50;54.51;102103.05;1667839;85;21050;-67
2022/04/15 05:29:03;;;;;;;18.65;11.80;;;;;;;14.57;54.45;102102.05;1667051;85;21054;-66
2022/04/15 05:31:31;;;;;;;15.58;11.55;;;;;;;14.61;54.30;102099.79;1667169;85;21063;-66
2022/04/15 05:34:00;;;;;;;13.22;11.08;;;;;;;14.67;54.17;102099.68;1666949;85;21078;-66
2022/04/15 05:36:28;;;;;;;14.95;12.33;;;;;;;14.76;53.96;102095.17;1667089;85;21055;-66
2022/04/15 05:38:55;;;;;;;17.25;11.95;;;;;;;14.81;53.91;102096.84;1665728;85;21175;-65
2022/04/15 05:41:22;;;;;;;15.80;11.55;;;;;;;14.86;53.80;102087.59;1668184;85;21039;-65
2022/04/15 05:43:49;;;;;;;17.85;11.88;;;;;;;14.95;54.00;102087.40;1668882;85;21107;-64
2022/04/15 05:46:16;;;;;;;15.30;11.73;;;;;;;15.15;53.92;102089.19;1669789;85;21083;-64
2022/04/15 05:48:44;;;;;;;15.70;12.82;;;;;;;15.37;53.40;102095.29;1669170;85;21606;-64
2022/04/15 05:51:11;;;;;;;13.93;11.53;;;;;;;15.61;53.07;102099.22;1667269;85;21091;-64
2022/04/15 05:53:38;;;;;;;15.20;12.37;;;;;;;15.90;52.60;102092.89;1666728;85;21051;-64
2022/04/15 05:56:05;;;;;;;17.15;11.85;;;;;;;16.22;51.94;102085.56;1658621;85;21057;-64
2022/04/15 05:58:32;;;;;;;13.03;11.18;;;;;;;16.55;51.20;102090.02;1669417;85;21058;-64
2022/04/15 06:00:59;;;;;;;16.97;11.80;;;;;;;16.91;50.30;102093.48;1667070;85;21031;-64
2022/04/15 06:03:32;;;;;;;18.07;11.63;;;;;;;17.32;49.31;102089.26;1667047;85;21563;-64
2022/04/15 06:06:00;;;;;;;13.45;10.10;;;;;;;17.78;48.35;102087.02;1667126;85;21051;-64
2022/04/15 06:08:28;;;;;;;13.43;10.23;;;;;;;18.33;47.15;102077.39;1659712;85;21550;-63
2022/04/15 06:10:55;;;;;;;10.53;9.15;;;;;;;18.81;45.91;102077.09;1667633;85;21054;-64
2022/04/15 06:13:25;;;;;;;14.45;9.08;;;;;;;19.27;44.92;102087.71;1667035;85;21059;-64
2022/04/15 06:15:55;;;;;;;10.93;8.80;;;;;;;19.72;43.51;102087.79;1666624;85;21043;-64
2022/04/15 06:18:24;;;;;;;11.35;9.08;;;;;;;20.17;42.35;102079.86;1667077;85;21051;-64
2022/04/15 06:20:52;;;;;;;10.88;8.98;;;;;;;20.59;41.30;102075.45;1666859;85;21059;-64
2022/04/15 06:23:20;;;;;;;11.93;8.25;;;;;;;20.94;40.33;102082.73;1667233;85;21066;-64
2022/04/15 06:25:47;;;;;;;11.48;8.38;;;;;;;21.24;39.40;102088.97;1670024;85;21051;-64
2022/04/15 06:28:14;;;;;;;11.60;8.60;;;;;;;21.43;38.41;102091.19;1669937;84;21115;-64
2022/04/15 06:30:41;;;;;;;14.45;8.13;;;;;;;21.53;37.50;102088.50;1667785;85;21122;-64
2022/04/15 06:33:10;;;;;;;11.68;8.75;;;;;;;21.63;37.24;102085.82;1668508;85;21031;-65
2022/04/15 06:35:39;;;;;;;9.98;6.78;;;;;;;21.72;36.65;102078.78;1668683;85;21570;-64
2022/04/15 06:38:07;;;;;;;10.23;7.20;;;;;;;21.80;36.05;102088.55;1669703;85;21558;-64
2022/04/15 06:40:35;;;;;;;9.00;6.65;;;;;;;21.93;35.58;102081.75;1667551;85;21071;-65
2022/04/15 06:43:02;;;;;;;7.45;6.53;;;;;;;22.07;34.93;102087.23;1667065;85;21003;-64
2022/04/15 06:45:29;;;;;;;14.18;6.90;;;;;;;22.12;34.55;102090.54;1666744;85;21042;-64
2022/04/15 06:47:56;;;;;;;10.85;7.08;;;;;;;22.13;34.41;102092.27;1666797;85;21586;-65
2022/04/15 06:50:22;;;;;;;11.50;7.15;;;;;;;22.18;34.40;102088.91;1667297;85;21070;-65
2022/04/15 06:52:50;;;;;;;8.50;7.33;;;;;;;22.28;34.24;102089.31;1668776;85;21677;-65
2022/04/15 06:55:17;;;;;;;8.65;7.35;;;;;;;22.37;33.91;102088.41;1669679;85;21107;-64
2022/04/15 06:57:44;;;;;;;9.85;7.87;;;;;;;22.38;33.67;102087.45;1668751;85;21574;-65
2022/04/15 07:00:13;;;;;;;9.55;7.20;;;;;;;22.26;33.79;102085.41;1637167;86;21079;-65
2022/04/15 07:02:43;;;;;;;10.75;8.15;;;;;;;22.12;34.00;102090.54;1638283;86;21556;-66
2022/04/15 07:05:10;;;;;;;10.68;8.15;;;;;;;21.95;34.35;102100.25;1621866;88;21079;-65
2022/04/15 07:07:39;;;;;;;10.35;8.40;;;;;;;21.76;34.85;102094.92;1626107;88;21603;-65
2022/04/15 07:10:10;;;;;;;12.75;8.85;;;;;;;21.61;34.96;102098.28;1626411;87;21035;-65
2022/04/15 07:12:38;;;;;;;10.60;9.53;;;;;;;21.48;35.20;102097.11;1630698;87;21042;-65
2022/04/15 07:15:08;;;;;;;11.25;9.28;;;;;;;21.36;35.23;102104.30;1630344;87;21067;-65
2022/04/15 07:17:34;;;;;;;11.75;9.45;;;;;;;21.21;35.76;102107.16;1631910;87;21051;-65
2022/04/15 07:20:06;;;;;;;11.18;9.23;;;;;;;21.12;35.83;102104.07;1633145;87;21052;-65
2022/04/15 07:22:33;;;;;;;14.65;10.43;;;;;;;21.08;36.19;102106.84;1629791;87;21106;-65
2022/04/15 07:25:00;;;;;;;11.30;10.15;;;;;;;21.13;36.31;102105.77;1630733;87;21107;-65
2022/04/15 07:27:26;;;;;;;13.30;10.08;;;;;;;21.17;36.41;102102.06;1630298;87;21060;-65
2022/04/15 07:29:54;;;;;;;15.35;10.58;;;;;;;21.25;36.35;102098.61;1610408;88;21094;-65
2022/04/15 07:32:25;;;;;;;14.75;11.00;;;;;;;21.33;36.10;102107.09;1636802;86;21601;-64
2022/04/15 07:34:54;;;;;;;11.90;10.72;;;;;;;21.31;36.04;102120.38;1612984;88;21054;-65
2022/04/15 07:37:22;;;;;;;14.03;10.50;;;;;;;21.20;36.30;102119.15;1613563;88;21114;-65
2022/04/15 07:39:49;;;;;;;12.30;9.90;;;;;;;20.96;36.88;102116.61;1616225;88;21626;-65
2022/04/15 07:42:17;;;;;;;10.85;9.75;;;;;;;20.68;37.49;102122.69;1617418;88;21081;-65
2022/04/15 07:44:45;;;;;;;13.70;10.90;;;;;;;20.39;38.01;102120.38;1651950;86;21050;-65
2022/04/15 07:47:12;;;;;;;12.03;9.95;;;;;;;20.12;38.27;102124.09;1649110;86;21054;-65
2022/04/15 07:49:38;;;;;;;12.65;10.85;;;;;;;19.91;38.80;102115.67;1622539;88;21605;-65
2022/04/15 07:52:07;;;;;;;13.18;10.32;;;;;;;19.73;39.09;102113.75;1646949;86;21062;-65
2022/04/15 07:54:34;;;;;;;14.68;11.73;;;;;;;19.61;39.11;102116.86;1650052;86;21078;-65
2022/04/15 07:57:01;;;;;;;11.73;10.58;;;;;;;19.49;39.51;102122.98;1611768;88;21038;-65
2022/04/15 07:59:29;;;;;;;16.07;11.88;;;;;;;19.33;40.00;102113.91;1582468;89;21102;-65
2022/04/15 08:01:56;;;;;;;15.63;11.85;;;;;;;19.19;40.34;102107.38;1608907;88;21619;-65
2022/04/15 08:04:25;;;;;;;14.85;11.80;;;;;;;19.01;40.63;102100.98;1582139;89;21055;-65
2022/04/15 08:06:53;;;;;;;15.05;12.25;;;;;;;18.87;40.75;102105.02;1608344;88;21074;-66
2022/04/15 08:09:21;;;;;;;13.35;11.48;;;;;;;18.72;41.37;102106.41;1582038;89;21575;-65
2022/04/15 08:11:49;;;;;;;16.77;13.43;;;;;;;18.59;41.67;102108.59;1612757;88;21058;-65
2022/04/15 08:14:16;;;;;;;14.87;13.00;;;;;;;18.44;42.28;102101.66;1607099;88;21590;-65
2022/04/15 08:16:44;;;;;;;15.32;12.80;;;;;;;18.32;42.60;102096.77;1612979;88;21597;-65
2022/04/15 08:19:10;;;;;;;16.85;13.05;;;;;;;18.19;42.93;102108.14;1602245;89;21141;-65
2022/04/15 08:21:37;;;;;;;14.78;12.65;;;;;;;18.07;43.41;102110.30;1600634;89;21580;-65
2022/04/15 08:24:05;;;;;;;15.15;12.55;;;;;;;17.98;43.80;102100.03;1600801;89;21049;-65
2022/04/15 08:26:32;;;;;;;14.98;12.58;;;;;;;17.91;44.07;102103.78;1601287;89;21054;-65
2022/04/15 08:28:59;;;;;;;13.45;11.97;;;;;;;17.84;44.18;102109.69;1600377;89;21052;-65
2022/04/15 08:31:26;;;;;;;14.35;11.57;;;;;;;17.76;44.44;102105.95;1613626;87;21091;-65
2022/04/15 08:33:52;;;;;;;14.70;12.23;;;;;;;17.68;44.78;102106.63;1636662;87;21066;-65
2022/04/15 08:36:19;;;;;;;13.45;11.90;;;;;;;17.60;44.93;102103.37;1667755;85;21090;-65
2022/04/15 08:38:47;;;;;;;17.57;12.50;;;;;;;17.53;45.04;102100.53;1667531;85;21047;-65
2022/04/15 08:41:15;;;;;;;16.75;12.20;;;;;;;17.46;45.44;102100.25;1656027;85;21630;-65
2022/04/15 08:43:42;;;;;;;13.68;11.88;;;;;;;17.41;45.70;102096.91;1666881;85;21091;-65
2022/04/15 08:46:09;;;;;;;16.45;12.00;;;;;;;17.38;45.89;102100.92;1664030;85;21546;-66
2022/04/15 08:48:36;;;;;;;12.37;11.05;;;;;;;17.37;46.15;102099.18;1667228;85;21038;-65
2022/04/15 08:51:04;;;;;;;14.28;10.93;;;;;;;17.38;46.20;102095.66;1667729;85;21047;-65
2022/04/15 08:53:31;;;;;;;13.50;11.28;;;;;;;17.39;46.00;102092.14;1666822;85;21492;-65
2022/04/15 08:55:58;;;;;;;15.93;11.53;;;;;;;17.43;46.00;102095.53;1664600;85;21023;-65
2022/04/15 08:58:27;;;;;;;17.42;12.05;;;;;;;17.45;46.03;102095.91;1665031;85;21550;-65
2022/04/15 09:00:54;;;;;;;13.03;11.63;;;;;;;17.48;46.15;102097.11;1664476;85;21122;-65
2022/04/15 09:03:21;;;;;;;13.05;10.65;;;;;;;17.49;46.20;102093.63;1636457;85;21054;-66
2022/04/15 09:05:52;;;;;;;12.95;11.63;;;;;;;17.50;46.18;102087.44;1665696;84;21110;-65
2022/04/15 09:08:19;;;;;;;13.78;10.98;;;;;;;17.50;46.31;102083.49;1667595;85;21538;-65
2022/04/15 09:10:56;;;;;;;12.65;10.70;;;;;;;17.49;46.33;102081.78;1670134;85;21067;-65
2022/04/15 09:13:28;;;;;;;12.30;10.80;;;;;;;17.50;46.26;102077.36;1667604;85;21030;-65
2022/04/15 09:15:55;;;;;;;13.35;10.08;;;;;;;17.47;46.29;102069.53;1652144;85;21046;-65
2022/04/15 09:18:36;;;;;;;12.85;10.48;;;;;;;17.47;46.29;102069.53;1642663;85;21185;-64
2022/04/15 09:21:21;;;;;;;11.65;10.10;;;;;;;17.47;46.29;102074.36;1665202;85;21058;-64
2022/04/15 09:23:54;;;;;;;10.55;9.45;;;;;;;17.44;46.36;102074.88;1621717;87;21041;-65
2022/04/15 09:26:23;;;;;;;11.63;9.98;;;;;;;17.41;46.58;102074.53;1620873;88;21081;-65
2022/04/15 09:28:50;;;;;;;13.65;10.55;;;;;;;17.37;46.67;102075.50;1621739;88;21081;-65
2022/04/15 09:31:19;;;;;;;11.20;9.48;;;;;;;17.38;46.84;102074.61;1602484;88;21026;-64
2022/04/15 09:33:55;;;;;;;11.85;9.58;;;;;;;17.41;46.82;102081.56;1623686;88;21057;-65
2022/04/15 09:36:35;;;;;;;10.98;9.15;;;;;;;17.45;46.80;102082.75;1623632;88;21573;-66
2022/04/15 09:39:10;;;;;;;10.98;9.50;;;;;;;17.51;46.57;102074.70;1600632;88;21630;-66
2022/04/15 09:41:34;;;;;;;10.58;9.45;;;;;;;17.54;46.58;102068.02;1562704;88;21600;-65
2022/04/15 09:44:01;;;;;;;13.70;10.43;;;;;;;17.57;46.58;102074.52;1611869;88;21094;-66
2022/04/15 09:46:30;;;;;;;12.40;9.58;;;;;;;17.57;46.49;102073.20;1611687;88;21103;-66
2022/04/15 09:49:06;;;;;;;13.65;8.75;;;;;;;17.56;46.43;102072.78;1610300;88;21058;-65
2022/04/15 09:51:44;;;;;;;10.50;9.40;;;;;;;17.55;46.66;102072.39;1610463;88;21042;-65
2022/04/15 09:54:25;;;;;;;9.75;8.65;;;;;;;17.55;46.81;102068.44;1558063;91;21132;-65
2022/04/15 09:59:27;;;;;;;9.90;8.73;;;;;;;17.60;47.00;102059.94;1516783;94;21200;-65
2022/04/15 10:01:57;;;;;;;10.70;8.83;;;;;;;17.65;46.86;102059.36;1517241;94;21154;-65
2022/04/15 10:04:24;;;;;;;12.30;8.50;;;;;;;17.70;46.69;102058.75;1471626;97;21184;-66
2022/04/15 10:06:51;;;;;;;11.43;7.78;;;;;;;17.74;46.88;102056.91;1472003;97;21161;-66
2022/04/15 10:09:20;;;;;;;13.60;9.05;;;;;;;17.79;46.79;102052.34;1470578;97;21106;-66
2022/04/15 10:11:49;;;;;;;9.90;8.23;;;;;;;17.85;46.91;102047.75;1458200;97;21106;-65
2022/04/15 10:14:18;;;;;;;8.88;7.97;;;;;;;17.93;46.90;102038.77;1457838;97;21515;-66
2022/04/15 10:16:44;;;;;;;10.65;8.65;;;;;;;17.99;46.78;102039.88;1458031;97;21617;-65
2022/04/15 10:19:13;;;;;;;8.78;7.87;;;;;;;18.05;46.68;102037.05;1458200;97;21099;-65
2022/04/15 10:21:43;;;;;;;10.23;7.40;;;;;;;18.11;46.39;102036.84;1458320;97;21613;-65
2022/04/15 10:24:12;;;;;;;9.15;7.83;;;;;;;18.16;46.36;102030.95;1457890;97;21121;-65
2022/04/15 10:26:41;;;;;;;10.63;8.30;;;;;;;18.20;46.21;102030.81;1457982;97;21171;-65
2022/04/15 10:29:09;;;;;;;10.45;7.80;;;;;;;18.23;46.20;102035.12;1457924;97;21178;-65
2022/04/15 10:31:43;;;;;;;9.53;8.60;;;;;;;18.27;46.10;102035.43;1458096;97;21130;-65
2022/04/15 10:34:18;;;;;;;9.95;8.15;;;;;;;18.31;45.97;102033.09;1421891;99;21118;-65
2022/04/15 10:36:54;;;;;;;9.90;8.08;;;;;;;18.34;45.98;102035.64;1406628;100;21092;-65
2022/04/15 10:39:23;;;;;;;8.90;7.78;;;;;;;18.38;45.90;102034.14;1381735;102;21096;-65
2022/04/15 10:41:59;;;;;;;10.80;8.20;;;;;;;18.44;45.73;102039.23;1393618;101;21142;-65
2022/04/15 10:44:39;;;;;;;8.73;7.35;;;;;;;18.51;45.64;102033.31;1427473;99;21596;-66
2022/04/15 10:47:22;;;;;;;11.25;7.90;;;;;;;18.58;45.51;102030.43;1427452;99;21616;-65
2022/04/15 10:49:57;;;;;;;9.55;7.78;;;;;;;18.64;45.16;102031.53;1427972;99;21603;-64
2022/04/15 10:52:26;;;;;;;9.58;7.67;;;;;;;18.70;45.01;102027.81;1357400;104;21168;-64
2022/04/15 10:55:05;;;;;;;9.33;8.15;;;;;;;18.74;44.91;102032.06;1357421;104;21735;-64
2022/04/15 10:57:37;;;;;;;10.13;7.92;;;;;;;18.76;44.91;102030.23;1367126;102;21167;-65
2022/04/15 11:03:00;;;;;;;9.90;8.23;;;;;;;18.79;44.99;102028.81;1390183;103;21640;-65
2022/04/15 11:05:52;;;;;;;10.00;7.62;;;;;;;18.81;45.00;102025.67;1406238;102;21180;-65
2022/04/15 11:08:22;;;;;;;9.73;7.87;;;;;;;18.83;44.92;102029.56;1390179;103;21186;-65
2022/04/15 11:10:59;;;;;;;10.08;8.28;;;;;;;18.83;44.98;102019.87;1390166;102;21140;-65
2022/04/15 11:13:44;;;;;;;8.43;7.60;;;;;;;18.81;45.09;102016.44;1390256;103;21573;-65
2022/04/15 11:16:16;;;;;;;9.50;8.60;;;;;;;18.81;45.19;102020.39;1388070;102;21187;-65
2022/04/15 11:18:54;;;;;;;10.70;7.67;;;;;;;18.81;45.11;102013.80;1390206;102;21160;-65
2022/04/15 11:21:33;;;;;;;9.10;7.97;;;;;;;18.79;45.29;102002.45;1390252;103;21647;-65
2022/04/15 11:24:09;;;;;;;11.18;8.33;;;;;;;18.79;45.40;102005.53;1383312;103;21084;-65
2022/04/15 11:26:38;;;;;;;9.65;8.33;;;;;;;18.79;45.54;101998.49;1390241;103;21655;-65
2022/04/15 11:29:07;;;;;;;9.25;7.70;;;;;;;18.79;45.51;101995.86;1407039;99;21175;-65
2022/04/15 11:31:38;;;;;;;11.03;7.75;;;;;;;18.78;45.67;101990.16;1457423;97;21177;-65
2022/04/15 11:34:15;;;;;;;10.25;8.40;;;;;;;18.80;45.77;101996.24;1464022;97;21636;-65